sensor_id;sensor_type;location;lat;lon;timestamp;pressure;altitude;pressure_sealevel;temperature;humidity
13080;BME280;6606;49.154;9.280;2022-11-20T00:02:09;99194.00;;;4.06;100.00
13080;BME280;6606;49.154;9.280;2022-11-20T00:04:36;99197.44;;;4.08;100.00
13080;BME280;6606;49.154;9.280;2022-11-20T00:07:04;99193.19;;;4.04;100.00
13080;BME280;6606;49.154;9.280;2022-11-20T00:09:30;99202.59;;;4.11;100.00
13080;BME280;6606;49.154;9.280;2022-11-20T00:11:57;99203.59;;;4.07;100.00
13080;BME280;6606;49.154;9.280;2022-11-20T00:14:24;99205.50;;;4.02;100.00
13080;BME280;6606;49.154;9.280;2022-11-20T00:16:50;99209.03;;;4.01;100.00
13080;BME280;6606;49.154;9.280;2022-11-20T00:19:17;99206.22;;;4.07;100.00
13080;BME280;6606;49.154;9.280;2022-11-20T00:21:44;99193.91;;;4.09;100.00
13080;BME280;6606;49.154;9.280;2022-11-20T00:24:13;99200.00;;;4.09;100.00
13080;BME280;6606;49.154;9.280;2022-11-20T00:26:40;99198.88;;;3.90;100.00
13080;BME280;6606;49.154;9.280;2022-11-20T00:29:08;99202.00;;;4.01;100.00
13080;BME280;6606;49.154;9.280;2022-11-20T00:31:35;99206.88;;;4.13;100.00
13080;BME280;6606;49.154;9.280;2022-11-20T00:34:03;99199.25;;;4.06;100.00
13080;BME280;6606;49.154;9.280;2022-11-20T00:36:33;99202.88;;;4.02;100.00
13080;BME280;6606;49.154;9.280;2022-11-20T00:39:00;99197.81;;;3.95;100.00
13080;BME280;6606;49.154;9.280;2022-11-20T00:41:29;99197.72;;;3.99;100.00
13080;BME280;6606;49.154;9.280;2022-11-20T00:43:56;99197.53;;;4.05;100.00
13080;BME280;6606;49.154;9.280;2022-11-20T00:46:25;99202.59;;;4.11;100.00
13080;BME280;6606;49.154;9.280;2022-11-20T00:48:52;99197.44;;;4.08;100.00
13080;BME280;6606;49.154;9.280;2022-11-20T00:51:21;99193.91;;;4.09;100.00
13080;BME280;6606;49.154;9.280;2022-11-20T00:53:48;99201.56;;;4.15;100.00
13080;BME280;6606;49.154;9.280;2022-11-20T00:56:16;99201.69;;;4.12;100.00
13080;BME280;6606;49.154;9.280;2022-11-20T00:58:46;99194.50;;;4.18;100.00
13080;BME280;6606;49.154;9.280;2022-11-20T01:01:15;99201.34;;;4.23;100.00
13080;BME280;6606;49.154;9.280;2022-11-20T01:03:43;99210.16;;;4.20;100.00
13080;BME280;6606;49.154;9.280;2022-11-20T01:06:12;99203.31;;;4.16;100.00
13080;BME280;6606;49.154;9.280;2022-11-20T01:08:39;99208.00;;;4.05;100.00
13080;BME280;6606;49.154;9.280;2022-11-20T01:11:07;99212.16;;;4.12;100.00
13080;BME280;6606;49.154;9.280;2022-11-20T01:13:34;99203.06;;;4.24;100.00
13080;BME280;6606;49.154;9.280;2022-11-20T01:16:07;99202.00;;;4.29;100.00
13080;BME280;6606;49.154;9.280;2022-11-20T01:18:35;99204.63;;;4.29;100.00
13080;BME280;6606;49.154;9.280;2022-11-20T01:21:03;99212.50;;;4.29;100.00
13080;BME280;6606;49.154;9.280;2022-11-20T01:23:32;99207.28;;;4.28;100.00
13080;BME280;6606;49.154;9.280;2022-11-20T01:26:00;99202.03;;;4.28;100.00
13080;BME280;6606;49.154;9.280;2022-11-20T01:28:28;99210.59;;;4.34;100.00
13080;BME280;6606;49.154;9.280;2022-11-20T01:30:54;99203.50;;;4.36;100.00
13080;BME280;6606;49.154;9.280;2022-11-20T01:33:22;99203.31;;;4.43;100.00
13080;BME280;6606;49.154;9.280;2022-11-20T01:35:49;99201.50;;;4.45;100.00
13080;BME280;6606;49.154;9.280;2022-11-20T01:38:16;99199.06;;;4.38;100.00
13080;BME280;6606;49.154;9.280;2022-11-20T01:40:43;99194.53;;;4.44;100.00
13080;BME280;6606;49.154;9.280;2022-11-20T01:43:14;99203.00;;;4.52;100.00
13080;BME280;6606;49.154;9.280;2022-11-20T01:45:56;99183.63;;;4.56;100.00
13080;BME280;6606;49.154;9.280;2022-11-20T01:48:30;99183.31;;;4.65;100.00
13080;BME280;6606;49.154;9.280;2022-11-20T01:50:58;99181.53;;;4.66;100.00
13080;BME280;6606;49.154;9.280;2022-11-20T01:53:29;99174.50;;;4.41;100.00
13080;BME280;6606;49.154;9.280;2022-11-20T01:56:00;99172.53;;;4.48;100.00
13080;BME280;6606;49.154;9.280;2022-11-20T01:58:32;99171.50;;;4.52;100.00
13080;BME280;6606;49.154;9.280;2022-11-20T02:00:59;99179.97;;;4.60;100.00
13080;BME280;6606;49.154;9.280;2022-11-20T02:03:28;99177.00;;;4.71;100.00
13080;BME280;6606;49.154;9.280;2022-11-20T02:05:58;99177.88;;;4.71;100.00
13080;BME280;6606;49.154;9.280;2022-11-20T02:08:28;99178.16;;;4.62;100.00
13080;BME280;6606;49.154;9.280;2022-11-20T02:10:56;99180.53;;;4.70;100.00
13080;BME280;6606;49.154;9.280;2022-11-20T02:13:22;99188.41;;;4.70;100.00
13080;BME280;6606;49.154;9.280;2022-11-20T02:16:09;99179.56;;;4.72;100.00
13080;BME280;6606;49.154;9.280;2022-11-20T02:18:38;99177.75;;;4.74;100.00
13080;BME280;6606;49.154;9.280;2022-11-20T02:21:09;99180.53;;;4.70;100.00
13080;BME280;6606;49.154;9.280;2022-11-20T02:23:54;99179.47;;;4.75;100.00
13080;BME280;6606;49.154;9.280;2022-11-20T02:26:23;99180.97;;;4.82;100.00
13080;BME280;6606;49.154;9.280;2022-11-20T02:28:52;99179.25;;;4.81;100.00
13080;BME280;6606;49.154;9.280;2022-11-20T02:31:20;99174.75;;;4.85;100.00
13080;BME280;6606;49.154;9.280;2022-11-20T02:33:47;99179.91;;;4.88;100.00
13080;BME280;6606;49.154;9.280;2022-11-20T02:36:15;99182.38;;;4.93;100.00
13080;BME280;6606;49.154;9.280;2022-11-20T02:38:43;99181.19;;;5.01;100.00
13080;BME280;6606;49.154;9.280;2022-11-20T02:41:11;99185.44;;;5.05;100.00
13080;BME280;6606;49.154;9.280;2022-11-20T02:43:38;99178.72;;;4.97;100.00
13080;BME280;6606;49.154;9.280;2022-11-20T02:46:07;99172.22;;;5.07;100.00
13080;BME280;6606;49.154;9.280;2022-11-20T02:48:34;99171.22;;;5.11;100.00
13080;BME280;6606;49.154;9.280;2022-11-20T02:51:01;99158.19;;;5.08;100.00
13080;BME280;6606;49.154;9.280;2022-11-20T02:53:28;99160.72;;;5.11;100.00
13080;BME280;6606;49.154;9.280;2022-11-20T02:55:55;99166.09;;;5.08;100.00
13080;BME280;6606;49.154;9.280;2022-11-20T02:58:23;99162.28;;;5.15;100.00
13080;BME280;6606;49.154;9.280;2022-11-20T03:00:50;99157.03;;;5.15;100.00
13080;BME280;6606;49.154;9.280;2022-11-20T03:03:18;99155.22;;;5.17;100.00
13080;BME280;6606;49.154;9.280;2022-11-20T03:05:44;99151.47;;;5.24;100.00
13080;BME280;6606;49.154;9.280;2022-11-20T03:08:11;99147.22;;;5.20;100.00
13080;BME280;6606;49.154;9.280;2022-11-20T03:10:38;99156.44;;;5.32;100.00
13080;BME280;6606;49.154;9.280;2022-11-20T03:13:04;99148.44;;;5.35;100.00
13080;BME280;6606;49.154;9.280;2022-11-20T03:15:33;99142.94;;;5.41;100.00
13080;BME280;6606;49.154;9.280;2022-11-20T03:17:59;99154.09;;;5.48;100.00
13080;BME280;6606;49.154;9.280;2022-11-20T03:20:26;99145.63;;;5.40;100.00
13080;BME280;6606;49.154;9.280;2022-11-20T03:22:53;99154.19;;;5.45;100.00
13080;BME280;6606;49.154;9.280;2022-11-20T03:25:20;99143.91;;;5.62;100.00
13080;BME280;6606;49.154;9.280;2022-11-20T03:27:47;99140.88;;;5.71;100.00
13080;BME280;6606;49.154;9.280;2022-11-20T03:30:14;99138.59;;;5.86;100.00
13080;BME280;6606;49.154;9.280;2022-11-20T03:32:42;99139.97;;;5.96;100.00
13080;BME280;6606;49.154;9.280;2022-11-20T03:35:09;99143.16;;;6.04;100.00
13080;BME280;6606;49.154;9.280;2022-11-20T03:37:36;99137.91;;;6.04;100.00
13080;BME280;6606;49.154;9.280;2022-11-20T03:40:03;99131.03;;;6.22;100.00
13080;BME280;6606;49.154;9.280;2022-11-20T03:42:31;99128.19;;;6.27;100.00
13080;BME280;6606;49.154;9.280;2022-11-20T03:45:13;99135.06;;;6.31;100.00
13080;BME280;6606;49.154;9.280;2022-11-20T03:47:39;99128.84;;;6.32;100.00
13080;BME280;6606;49.154;9.280;2022-11-20T03:50:09;99131.47;;;6.32;100.00
13080;BME280;6606;49.154;9.280;2022-11-20T03:52:36;99133.63;;;6.44;100.00
13080;BME280;6606;49.154;9.280;2022-11-20T03:55:03;99133.34;;;6.50;100.00
13080;BME280;6606;49.154;9.280;2022-11-20T03:57:29;99125.78;;;6.63;100.00
13080;BME280;6606;49.154;9.280;2022-11-20T03:59:56;99132.03;;;6.60;100.00
13080;BME280;6606;49.154;9.280;2022-11-20T04:02:23;99126.78;;;6.60;100.00
13080;BME280;6606;49.154;9.280;2022-11-20T04:04:49;99124.78;;;6.66;100.00
13080;BME280;6606;49.154;9.280;2022-11-20T04:07:17;99117.22;;;6.58;100.00
13080;BME280;6606;49.154;9.280;2022-11-20T04:09:44;99119.72;;;6.61;100.00
13080;BME280;6606;49.154;9.280;2022-11-20T04:12:11;99121.13;;;6.70;100.00
13080;BME280;6606;49.154;9.280;2022-11-20T04:14:38;99126.81;;;6.79;100.00
13080;BME280;6606;49.154;9.280;2022-11-20T04:17:05;99118.88;;;6.81;100.00
13080;BME280;6606;49.154;9.280;2022-11-20T04:19:31;99114.72;;;6.75;100.00
13080;BME280;6606;49.154;9.280;2022-11-20T04:21:58;99117.94;;;6.82;100.00
13080;BME280;6606;49.154;9.280;2022-11-20T04:24:26;99122.88;;;6.90;100.00
13080;BME280;6606;49.154;9.280;2022-11-20T04:26:53;99114.50;;;6.80;100.00
13080;BME280;6606;49.154;9.280;2022-11-20T04:29:19;99116.38;;;6.78;100.00
13080;BME280;6606;49.154;9.280;2022-11-20T04:31:46;99107.63;;;6.77;100.00
13080;BME280;6606;49.154;9.280;2022-11-20T04:34:13;99113.66;;;6.79;100.00
13080;BME280;6606;49.154;9.280;2022-11-20T04:36:40;99114.44;;;6.81;100.00
13080;BME280;6606;49.154;9.280;2022-11-20T04:39:12;99107.16;;;6.88;100.00
13080;BME280;6606;49.154;9.280;2022-11-20T04:41:42;99121.41;;;6.82;100.00
13080;BME280;6606;49.154;9.280;2022-11-20T04:44:09;99113.28;;;6.89;100.00
13080;BME280;6606;49.154;9.280;2022-11-20T04:46:38;99119.84;;;6.99;100.00
13080;BME280;6606;49.154;9.280;2022-11-20T04:49:05;99111.34;;;6.92;100.00
13080;BME280;6606;49.154;9.280;2022-11-20T04:51:32;99119.09;;;6.95;100.00
13080;BME280;6606;49.154;9.280;2022-11-20T04:53:59;99115.44;;;6.99;100.00
13080;BME280;6606;49.154;9.280;2022-11-20T04:56:26;99105.78;;;6.98;100.00
13080;BME280;6606;49.154;9.280;2022-11-20T04:58:54;99107.25;;;7.05;100.00
13080;BME280;6606;49.154;9.280;2022-11-20T05:01:23;99106.53;;;7.21;100.00
13080;BME280;6606;49.154;9.280;2022-11-20T05:03:51;99102.78;;;7.26;100.00
13080;BME280;6606;49.154;9.280;2022-11-20T05:06:19;99105.75;;;7.19;100.00
13080;BME280;6606;49.154;9.280;2022-11-20T05:08:46;99094.25;;;7.01;100.00
13080;BME280;6606;49.154;9.280;2022-11-20T05:11:16;99096.16;;;7.18;100.00
13080;BME280;6606;49.154;9.280;2022-11-20T05:13:43;99100.13;;;7.26;100.00
13080;BME280;6606;49.154;9.280;2022-11-20T05:16:13;99110.53;;;7.11;100.00
13080;BME280;6606;49.154;9.280;2022-11-20T05:18:40;99098.69;;;7.19;100.00
13080;BME280;6606;49.154;9.280;2022-11-20T05:21:09;99098.78;;;7.18;100.00
13080;BME280;6606;49.154;9.280;2022-11-20T05:23:37;99103.25;;;7.16;100.00
13080;BME280;6606;49.154;9.280;2022-11-20T05:26:04;99099.19;;;7.09;100.00
13080;BME280;6606;49.154;9.280;2022-11-20T05:28:32;99103.31;;;7.14;100.00
13080;BME280;6606;49.154;9.280;2022-11-20T05:31:05;99109.81;;;7.07;100.00
13080;BME280;6606;49.154;9.280;2022-11-20T05:33:33;99115.97;;;6.67;100.00
13080;BME280;6606;49.154;9.280;2022-11-20T05:36:00;99107.34;;;6.43;100.00
13080;BME280;6606;49.154;9.280;2022-11-20T05:38:27;99117.00;;;6.22;100.00
13080;BME280;6606;49.154;9.280;2022-11-20T05:40:54;99120.75;;;6.16;100.00
13080;BME280;6606;49.154;9.280;2022-11-20T05:43:21;99121.72;;;5.91;100.00
13080;BME280;6606;49.154;9.280;2022-11-20T05:45:54;99120.03;;;6.12;100.00
13080;BME280;6606;49.154;9.280;2022-11-20T05:48:21;99113.59;;;6.20;100.00
13080;BME280;6606;49.154;9.280;2022-11-20T05:50:49;99111.81;;;6.20;100.00
13080;BME280;6606;49.154;9.280;2022-11-20T05:53:16;99110.97;;;6.20;100.00
13080;BME280;6606;49.154;9.280;2022-11-20T05:55:43;99107.09;;;6.28;100.00
13080;BME280;6606;49.154;9.280;2022-11-20T05:58:10;99104.06;;;6.37;100.00
13080;BME280;6606;49.154;9.280;2022-11-20T06:00:37;99100.69;;;6.34;100.00
13080;BME280;6606;49.154;9.280;2022-11-20T06:03:04;99110.19;;;6.38;100.00
13080;BME280;6606;49.154;9.280;2022-11-20T06:05:33;99109.13;;;6.42;100.00
13080;BME280;6606;49.154;9.280;2022-11-20T06:08:01;99110.59;;;6.49;100.00
13080;BME280;6606;49.154;9.280;2022-11-20T06:10:28;99118.34;;;6.52;100.00
13080;BME280;6606;49.154;9.280;2022-11-20T06:12:57;99114.69;;;6.56;100.00
13080;BME280;6606;49.154;9.280;2022-11-20T06:15:23;99124.78;;;6.66;100.00
13080;BME280;6606;49.154;9.280;2022-11-20T06:17:51;99113.47;;;6.64;100.00
13080;BME280;6606;49.154;9.280;2022-11-20T06:20:18;99119.16;;;6.54;100.00
13080;BME280;6606;49.154;9.280;2022-11-20T06:22:45;99119.06;;;6.56;100.00
13080;BME280;6606;49.154;9.280;2022-11-20T06:25:13;99116.03;;;6.45;100.00
13080;BME280;6606;49.154;9.280;2022-11-20T06:27:40;99116.69;;;6.50;100.00
13080;BME280;6606;49.154;9.280;2022-11-20T06:30:08;99111.63;;;6.45;100.00
13080;BME280;6606;49.154;9.280;2022-11-20T06:32:35;99124.03;;;6.43;100.00
13080;BME280;6606;49.154;9.280;2022-11-20T06:35:01;99126.00;;;6.38;100.00
13080;BME280;6606;49.154;9.280;2022-11-20T06:37:28;99126.00;;;6.38;100.00
13080;BME280;6606;49.154;9.280;2022-11-20T06:39:55;99127.06;;;6.32;100.00
13080;BME280;6606;49.154;9.280;2022-11-20T06:42:23;99137.09;;;6.45;100.00
13080;BME280;6606;49.154;9.280;2022-11-20T06:44:50;99133.81;;;6.39;100.00
13080;BME280;6606;49.154;9.280;2022-11-20T06:47:16;99131.13;;;6.41;100.00
13080;BME280;6606;49.154;9.280;2022-11-20T06:49:43;99120.97;;;6.32;100.00
13080;BME280;6606;49.154;9.280;2022-11-20T06:52:10;99127.56;;;6.42;100.00
13080;BME280;6606;49.154;9.280;2022-11-20T06:54:36;99135.25;;;6.47;100.00
13080;BME280;6606;49.154;9.280;2022-11-20T06:57:03;99126.56;;;6.45;100.00
13080;BME280;6606;49.154;9.280;2022-11-20T06:59:31;99129.53;;;6.37;100.00
13080;BME280;6606;49.154;9.280;2022-11-20T07:01:57;99137.09;;;6.45;100.00
13080;BME280;6606;49.154;9.280;2022-11-20T07:04:24;99142.09;;;6.51;100.00
13080;BME280;6606;49.154;9.280;2022-11-20T07:06:51;99141.25;;;6.50;100.00
13080;BME280;6606;49.154;9.280;2022-11-20T07:09:17;99144.66;;;6.52;100.00
13080;BME280;6606;49.154;9.280;2022-11-20T07:11:44;99143.22;;;6.45;100.00
13080;BME280;6606;49.154;9.280;2022-11-20T07:14:11;99145.66;;;6.50;100.00
13080;BME280;6606;49.154;9.280;2022-11-20T07:16:39;99146.91;;;6.41;100.00
13080;BME280;6606;49.154;9.280;2022-11-20T07:19:05;99154.16;;;6.56;100.00
13080;BME280;6606;49.154;9.280;2022-11-20T07:21:32;99142.72;;;6.57;100.00
13080;BME280;6606;49.154;9.280;2022-11-20T07:23:59;99143.41;;;6.61;100.00
13080;BME280;6606;49.154;9.280;2022-11-20T07:26:25;99139.41;;;6.73;100.00
13080;BME280;6606;49.154;9.280;2022-11-20T07:28:52;99133.97;;;6.77;100.00
13080;BME280;6606;49.154;9.280;2022-11-20T07:31:19;99143.88;;;6.91;100.00
13080;BME280;6606;49.154;9.280;2022-11-20T07:33:47;99136.22;;;7.05;100.00
13080;BME280;6606;49.154;9.280;2022-11-20T07:36:14;99135.09;;;7.11;100.00
13080;BME280;6606;49.154;9.280;2022-11-20T07:38:40;99142.00;;;7.14;100.00
13080;BME280;6606;49.154;9.280;2022-11-20T07:41:07;99134.09;;;7.14;100.00
13080;BME280;6606;49.154;9.280;2022-11-20T07:43:34;99143.22;;;7.07;100.00
13080;BME280;6606;49.154;9.280;2022-11-20T07:46:00;99139.78;;;7.04;100.00
13080;BME280;6606;49.154;9.280;2022-11-20T07:48:29;99136.59;;;7.17;100.00
13080;BME280;6606;49.154;9.280;2022-11-20T07:50:57;99126.19;;;7.14;100.00
13080;BME280;6606;49.154;9.280;2022-11-20T07:53:24;99139.63;;;7.28;100.00
13080;BME280;6606;49.154;9.280;2022-11-20T07:55:51;99138.97;;;7.42;100.00
13080;BME280;6606;49.154;9.280;2022-11-20T07:58:18;99142.47;;;7.42;100.00
13080;BME280;6606;49.154;9.280;2022-11-20T08:00:45;99141.66;;;7.40;100.00
13080;BME280;6606;49.154;9.280;2022-11-20T08:03:12;99145.88;;;7.44;100.00
13080;BME280;6606;49.154;9.280;2022-11-20T08:05:39;99140.47;;;7.47;100.00
13080;BME280;6606;49.154;9.280;2022-11-20T08:08:07;99146.28;;;7.35;100.00
13080;BME280;6606;49.154;9.280;2022-11-20T08:10:34;99141.25;;;7.49;100.00
13080;BME280;6606;49.154;9.280;2022-11-20T08:13:00;99142.91;;;7.52;100.00
13080;BME280;6606;49.154;9.280;2022-11-20T08:15:48;99144.97;;;7.45;100.00
13080;BME280;6606;49.154;9.280;2022-11-20T08:18:16;99154.44;;;7.49;100.00
13080;BME280;6606;49.154;9.280;2022-11-20T08:20:44;99156.00;;;7.54;100.00
13080;BME280;6606;49.154;9.280;2022-11-20T08:23:12;99162.91;;;7.56;100.00
13080;BME280;6606;49.154;9.280;2022-11-20T08:25:39;99162.91;;;7.37;100.00
13080;BME280;6606;49.154;9.280;2022-11-20T08:28:08;99165.41;;;7.40;100.00
13080;BME280;6606;49.154;9.280;2022-11-20T08:30:36;99170.16;;;7.32;100.00
13080;BME280;6606;49.154;9.280;2022-11-20T08:33:04;99163.84;;;7.36;100.00
13080;BME280;6606;49.154;9.280;2022-11-20T08:35:32;99155.28;;;7.31;100.00
13080;BME280;6606;49.154;9.280;2022-11-20T08:37:59;99163.41;;;7.45;100.00
13080;BME280;6606;49.154;9.280;2022-11-20T08:40:27;99158.44;;;7.58;100.00
13080;BME280;6606;49.154;9.280;2022-11-20T08:42:54;99156.09;;;7.71;100.00
13080;BME280;6606;49.154;9.280;2022-11-20T08:45:20;99156.88;;;7.73;100.00
13080;BME280;6606;49.154;9.280;2022-11-20T08:47:47;99152.88;;;7.83;100.00
13080;BME280;6606;49.154;9.280;2022-11-20T08:50:15;99163.13;;;7.89;100.00
13080;BME280;6606;49.154;9.280;2022-11-20T08:52:43;99167.47;;;7.90;100.00
13080;BME280;6606;49.154;9.280;2022-11-20T08:55:10;99169.53;;;8.03;100.00
13080;BME280;6606;49.154;9.280;2022-11-20T08:57:38;99169.06;;;8.12;100.00
13080;BME280;6606;49.154;9.280;2022-11-20T09:00:07;99167.59;;;8.06;100.00
13080;BME280;6606;49.154;9.280;2022-11-20T09:02:34;99173.78;;;8.24;100.00
13080;BME280;6606;49.154;9.280;2022-11-20T09:05:01;99173.59;;;8.10;100.00
13080;BME280;6606;49.154;9.280;2022-11-20T09:07:29;99174.22;;;8.15;100.00
13080;BME280;6606;49.154;9.280;2022-11-20T09:09:55;99172.28;;;8.36;100.00
13080;BME280;6606;49.154;9.280;2022-11-20T09:12:22;99165.31;;;8.35;100.00
13080;BME280;6606;49.154;9.280;2022-11-20T09:14:50;99169.03;;;8.50;100.00
13080;BME280;6606;49.154;9.280;2022-11-20T09:17:17;99169.50;;;8.22;100.00
13080;BME280;6606;49.154;9.280;2022-11-20T09:19:45;99165.63;;;8.29;100.00
13080;BME280;6606;49.154;9.280;2022-11-20T09:22:12;99169.81;;;8.33;100.00
13080;BME280;6606;49.154;9.280;2022-11-20T09:24:39;99178.25;;;8.22;100.00
13080;BME280;6606;49.154;9.280;2022-11-20T09:27:05;99180.22;;;8.19;100.00
13080;BME280;6606;49.154;9.280;2022-11-20T09:29:32;99179.19;;;8.21;100.00
13080;BME280;6606;49.154;9.280;2022-11-20T09:32:00;99181.69;;;8.24;100.00
13080;BME280;6606;49.154;9.280;2022-11-20T09:34:27;99180.03;;;8.41;100.00
13080;BME280;6606;49.154;9.280;2022-11-20T09:36:53;99177.72;;;8.52;100.00
13080;BME280;6606;49.154;9.280;2022-11-20T09:39:20;99189.38;;;8.48;100.00
13080;BME280;6606;49.154;9.280;2022-11-20T09:41:59;99185.66;;;8.33;100.00
13080;BME280;6606;49.154;9.280;2022-11-20T09:44:40;99191.91;;;8.13;100.00
13080;BME280;6606;49.154;9.280;2022-11-20T09:47:12;99185.47;;;8.19;100.00
13080;BME280;6606;49.154;9.280;2022-11-20T09:49:57;99191.03;;;8.31;100.00
13080;BME280;6606;49.154;9.280;2022-11-20T09:52:35;99191.31;;;8.25;100.00
13080;BME280;6606;49.154;9.280;2022-11-20T09:55:07;99192.72;;;8.32;100.00
13080;BME280;6606;49.154;9.280;2022-11-20T09:57:36;99185.72;;;8.50;100.00
13080;BME280;6606;49.154;9.280;2022-11-20T10:00:06;99194.13;;;8.58;100.00
13080;BME280;6606;49.154;9.280;2022-11-20T10:02:42;99194.28;;;8.55;100.00
13080;BME280;6606;49.154;9.280;2022-11-20T10:05:16;99195.97;;;8.56;100.00
13080;BME280;6606;49.154;9.280;2022-11-20T10:07:48;99198.41;;;8.61;100.00
13080;BME280;6606;49.154;9.280;2022-11-20T10:10:28;99193.53;;;8.71;100.00
13080;BME280;6606;49.154;9.280;2022-11-20T10:13:06;99190.47;;;8.78;100.00
13080;BME280;6606;49.154;9.280;2022-11-20T10:15:47;99186.28;;;8.92;100.00
13080;BME280;6606;49.154;9.280;2022-11-20T10:18:31;99182.81;;;9.07;100.00
13080;BME280;6606;49.154;9.280;2022-11-20T10:21:07;99180.94;;;9.27;100.00
13080;BME280;6606;49.154;9.280;2022-11-20T10:23:45;99174.69;;;9.45;100.00
13080;BME280;6606;49.154;9.280;2022-11-20T10:26:19;99182.97;;;9.21;100.00
13080;BME280;6606;49.154;9.280;2022-11-20T10:29:07;99180.44;;;9.36;100.00
13080;BME280;6606;49.154;9.280;2022-11-20T10:31:38;99192.44;;;9.25;100.00
13080;BME280;6606;49.154;9.280;2022-11-20T10:34:16;99187.38;;;9.05;100.00
13080;BME280;6606;49.154;9.280;2022-11-20T10:36:50;99192.66;;;8.88;100.00
13080;BME280;6606;49.154;9.280;2022-11-20T10:39:24;99193.72;;;9.01;100.00
13080;BME280;6606;49.154;9.280;2022-11-20T10:41:53;99197.63;;;8.76;100.00
13080;BME280;6606;49.154;9.280;2022-11-20T10:44:21;99190.78;;;8.90;100.00
13080;BME280;6606;49.154;9.280;2022-11-20T10:47:04;99195.91;;;8.75;100.00
13080;BME280;6606;49.154;9.280;2022-11-20T10:49:33;99187.97;;;8.75;100.00
13080;BME280;6606;49.154;9.280;2022-11-20T10:52:07;99192.78;;;8.67;100.00
13080;BME280;6606;49.154;9.280;2022-11-20T10:54:40;99181.63;;;8.79;100.00
13080;BME280;6606;49.154;9.280;2022-11-20T10:57:20;99184.09;;;8.65;100.00
13080;BME280;6606;49.154;9.280;2022-11-20T11:00:00;99184.88;;;8.67;100.00
13080;BME280;6606;49.154;9.280;2022-11-20T11:02:35;99183.63;;;8.40;100.00
13080;BME280;6606;49.154;9.280;2022-11-20T11:05:14;99177.88;;;8.49;100.00
13080;BME280;6606;49.154;9.280;2022-11-20T11:07:45;99183.31;;;8.46;100.00
13080;BME280;6606;49.154;9.280;2022-11-20T11:10:15;99185.25;;;8.59;100.00
13080;BME280;6606;49.154;9.280;2022-11-20T11:12:45;99177.59;;;8.55;100.00
13080;BME280;6606;49.154;9.280;2022-11-20T11:15:14;99175.56;;;8.60;100.00
13080;BME280;6606;49.154;9.280;2022-11-20T11:17:46;99170.38;;;8.76;100.00
13080;BME280;6606;49.154;9.280;2022-11-20T11:20:19;99169.47;;;8.75;100.00
13080;BME280;6606;49.154;9.280;2022-11-20T11:22:47;99160.94;;;8.70;100.00
13080;BME280;6606;49.154;9.280;2022-11-20T11:25:25;99154.03;;;8.68;100.00
13080;BME280;6606;49.154;9.280;2022-11-20T11:27:53;99151.09;;;8.74;100.00
13080;BME280;6606;49.154;9.280;2022-11-20T11:30:23;99153.47;;;8.78;100.00
13080;BME280;6606;49.154;9.280;2022-11-20T11:32:50;99154.81;;;8.70;100.00
13080;BME280;6606;49.154;9.280;2022-11-20T11:35:29;99149.34;;;8.73;100.00
13080;BME280;6606;49.154;9.280;2022-11-20T11:38:03;99150.06;;;8.59;100.00
13080;BME280;6606;49.154;9.280;2022-11-20T11:40:32;99148.06;;;8.82;100.00
13080;BME280;6606;49.154;9.280;2022-11-20T11:43:01;99138.25;;;8.66;100.00
13080;BME280;6606;49.154;9.280;2022-11-20T11:45:28;99134.16;;;8.61;100.00
13080;BME280;6606;49.154;9.280;2022-11-20T11:47:56;99141.19;;;8.77;100.00
13080;BME280;6606;49.154;9.280;2022-11-20T11:50:25;99127.22;;;8.75;100.00
13080;BME280;6606;49.154;9.280;2022-11-20T11:53:07;99127.75;;;8.82;100.00
13080;BME280;6606;49.154;9.280;2022-11-20T11:55:39;99132.59;;;9.07;100.00
13080;BME280;6606;49.154;9.280;2022-11-20T11:58:19;99123.41;;;9.14;100.00
13080;BME280;6606;49.154;9.280;2022-11-20T12:00:53;99123.09;;;9.20;100.00
13080;BME280;6606;49.154;9.280;2022-11-20T12:03:27;99116.88;;;9.21;100.00
13080;BME280;6606;49.154;9.280;2022-11-20T12:05:57;99110.97;;;9.16;100.00
13080;BME280;6606;49.154;9.280;2022-11-20T12:08:31;99124.06;;;9.02;100.00
13080;BME280;6606;49.154;9.280;2022-11-20T12:11:03;99119.94;;;9.14;100.00
13080;BME280;6606;49.154;9.280;2022-11-20T12:13:39;99108.34;;;9.16;100.00
13080;BME280;6606;49.154;9.280;2022-11-20T12:16:12;99110.00;;;9.35;100.00
13080;BME280;6606;49.154;9.280;2022-11-20T12:18:40;99113.44;;;9.68;100.00
13080;BME280;6606;49.154;9.280;2022-11-20T12:21:18;99108.56;;;10.23;100.00
13080;BME280;6606;49.154;9.280;2022-11-20T12:23:59;99113.00;;;10.68;100.00
13080;BME280;6606;49.154;9.280;2022-11-20T12:26:43;99114.78;;;10.68;100.00
13080;BME280;6606;49.154;9.280;2022-11-20T12:29:18;99116.06;;;10.46;100.00
13080;BME280;6606;49.154;9.280;2022-11-20T12:31:58;99115.28;;;10.14;100.00
13080;BME280;6606;49.154;9.280;2022-11-20T12:34:44;99114.41;;;10.13;100.00
13080;BME280;6606;49.154;9.280;2022-11-20T12:37:24;99114.31;;;10.15;100.00
13080;BME280;6606;49.154;9.280;2022-11-20T12:40:02;99124.41;;;10.08;100.00
13080;BME280;6606;49.154;9.280;2022-11-20T12:42:49;99118.72;;;10.00;100.00
13080;BME280;6606;49.154;9.280;2022-11-20T12:45:53;99113.06;;;10.06;100.00
13080;BME280;6606;49.154;9.280;2022-11-20T12:48:39;99110.25;;;9.78;100.00
13080;BME280;6606;49.154;9.280;2022-11-20T12:51:25;99114.09;;;9.72;100.00
13080;BME280;6606;49.154;9.280;2022-11-20T12:54:11;99116.31;;;9.64;100.00
13080;BME280;6606;49.154;9.280;2022-11-20T12:56:50;99102.66;;;9.56;100.00
13080;BME280;6606;49.154;9.280;2022-11-20T12:59:32;99115.47;;;9.63;100.00
13080;BME280;6606;49.154;9.280;2022-11-20T13:02:09;99117.94;;;9.66;100.00
13080;BME280;6606;49.154;9.280;2022-11-20T13:05:12;99111.19;;;9.29;100.00
13080;BME280;6606;49.154;9.280;2022-11-20T13:07:42;99104.69;;;9.35;100.00
13080;BME280;6606;49.154;9.280;2022-11-20T13:10:14;99097.00;;;9.30;100.00
13080;BME280;6606;49.154;9.280;2022-11-20T13:12:49;99101.94;;;9.20;100.00
13080;BME280;6606;49.154;9.280;2022-11-20T13:15:26;99101.31;;;9.15;100.00
13080;BME280;6606;49.154;9.280;2022-11-20T13:18:01;99098.59;;;9.17;100.00
13080;BME280;6606;49.154;9.280;2022-11-20T13:20:29;99089.00;;;9.32;100.00
13080;BME280;6606;49.154;9.280;2022-11-20T13:22:57;99095.31;;;9.29;100.00
13080;BME280;6606;49.154;9.280;2022-11-20T13:25:25;99084.88;;;9.26;100.00